Portada
METAR-TAF:

METAR-TAF

Aeroports :

Agartala, Índia

latitud: 23-53-24N, longitud: 91-14-32E, altitud: 14 m

Observació

L'informe es va fer fa 46 minuts, a les 10:30 UTC
Vent 3 kt del Nord/Nord-Est
Temperatura 22°C
Humitat 57%
Pressió 1013 hPa
Visibilitat: 3000 m
calitja

METAR: VEAT 251030Z 02003KT 3000 HZ NSC 22/13 Q1013 NOSIG

Hora: 16:46 (11:16 UTC)

Pronòstic

L'informe es va fer fa 3 hores i 16 minuts, a les 08:00 UTC
Pronòstic vàlid del 25 a les 09 UTC al 25 a les 18 UTC
Vent kt del Nord
Visibilitat: 4000 m
calitja
Evolucionant progressivament
l' 25 a les 12 UTC al 25 a les 14 UTC
Visibilitat: 3000 m
boirina

TAF: VEAT 250800Z 2509/2518 00000KT 4000 HZ NSC BECMG 2512/2514 3000 BR

Observacions i pronòstics meteorològics de més de 4000 aeroports (METAR i TAF).

Les estacions disponibles són els punts grocs i vermells al mapa.

Posi el ratolí al punt desitjat per veure el nom de l'estació.

Feu clic per veure les observacions i els pronòstics meteorològics.

Per canviar el mapa: feu clic els botons verds amb una creu de color negre per apropar; al botó verd amb un guió per allunyar la imatge; o en les fletxes verdes per a mapes adjacents.


METAR-TAF: